Mystic, Missouri
Current Conditions -  °F | °C
As of 11:55 AM on Wednesday 28 Jan 2015 (Local Time) from KIRK Reporting Station
Clear Clear  
Wind Chill:   Ceiling: Unl
Heat Index:   Visibility: 9mi
Dew Point:   Wind: 16mph
Humidity: 74%   Direction: 150°SSE
Pressure: 29.95"   Gusts: NA
Location:  40.2455°N, 92.9523°W
Report Text: KIRK 281755Z AUTO 15014KT 9SM CLR 06/02 A2995 RMK AO2 SLP155 T00610017 10061 21022 58031
Loading
Personal Weather Stations






























Interactive Weather Map New forecast layout! Learn more

10-Day Weather Forecast

Advertisements
Track Severe Weather on mobile